Time;durP1;ratioP1;P1;durP2;ratioP2;P2;SDS_P1;SDS_P2;PMS_P1;PMS_P2;Temp;Humidity;BMP_temperature;BMP_pressure;BME280_temperature;BME280_humidity;BME280_pressure;Samples;Min_cycle;Max_cycle;Signal;HPM_P1;HPM_P2
2022/04/22 00:00:48;;;;;;;9.45;5.63;;;9.50;1.00;;;;;;5055409;28;20384;-81
2022/04/22 00:03:14;;;;;;;14.75;7.10;;;9.50;1.00;;;;;;5055426;28;20052;-81
2022/04/22 00:05:40;;;;;;;10.65;6.18;;;9.50;1.00;;;;;;5037591;28;20075;-81
2022/04/22 00:08:06;;;;;;;8.13;5.20;;;9.40;1.00;;;;;;5055352;28;20029;-81
2022/04/22 00:10:32;;;;;;;11.13;6.25;;;9.30;1.00;;;;;;5055354;28;20074;-81
2022/04/22 00:13:49;;;;;;;11.73;6.13;;;9.20;1.00;;;;;;5055024;28;20456;-81
2022/04/22 00:16:17;;;;;;;13.32;6.15;;;9.20;1.00;;;;;;5035497;28;20041;-81
2022/04/22 00:18:43;;;;;;;10.38;6.18;;;9.10;1.00;;;;;;5029549;28;20022;-81
2022/04/22 00:21:09;;;;;;;10.48;6.22;;;9.00;1.00;;;;;;4997759;28;20029;-81
2022/04/22 00:23:34;;;;;;;10.35;5.93;;;9.00;1.00;;;;;;5015361;28;20014;-81
2022/04/22 00:26:00;;;;;;;7.60;5.22;;;9.00;1.00;;;;;;4997796;28;20022;-81
2022/04/22 00:28:25;;;;;;;11.68;6.47;;;9.00;1.00;;;;;;5015411;28;20762;-81
2022/04/22 00:30:51;;;;;;;11.50;6.53;;;8.90;1.00;;;;;;5020537;28;20025;-81
2022/04/22 00:33:17;;;;;;;10.65;6.80;;;8.90;1.00;;;;;;5035085;28;20053;-81
2022/04/22 00:35:44;;;;;;;13.93;6.57;;;8.80;1.00;;;;;;5017146;28;20051;-81
2022/04/22 00:38:10;;;;;;;11.45;6.47;;;8.80;1.00;;;;;;5027778;28;20032;-82
2022/04/22 00:40:36;;;;;;;9.50;5.70;;;8.80;1.00;;;;;;5015316;28;20030;-81
2022/04/22 00:43:22;;;;;;;10.82;6.78;;;8.70;1.00;;;;;;5015050;28;20029;-81
2022/04/22 00:46:34;;;;;;;13.68;5.95;;;8.70;1.00;;;;;;5031520;28;20373;-81
2022/04/22 00:49:00;;;;;;;10.85;6.40;;;8.70;1.00;;;;;;5014870;28;20038;-81
2022/04/22 00:51:25;;;;;;;11.80;6.97;;;8.60;1.00;;;;;;4997299;28;20084;-81
2022/04/22 00:53:52;;;;;;;14.27;6.78;;;8.60;1.00;;;;;;5014903;28;20026;-81
2022/04/22 00:56:18;;;;;;;12.13;6.68;;;8.60;1.00;;;;;;5014841;28;20101;-80
2022/04/22 00:58:46;;;;;;;11.68;6.00;;;8.70;1.00;;;;;;5014213;28;20033;-81
2022/04/22 01:01:12;;;;;;;12.32;6.50;;;8.60;1.00;;;;;;5034582;28;20021;-81
2022/04/22 01:03:38;;;;;;;11.93;6.38;;;8.60;1.00;;;;;;5034415;28;20377;-81
2022/04/22 01:11:36;;;;;;;9.60;6.05;;;8.30;11.80;;;;;;5014907;28;20079;-81
2022/04/22 01:14:06;;;;;;;11.02;6.65;;;8.20;15.50;;;;;;5036165;23;20044;-81
2022/04/22 01:16:33;;;;;;;9.05;5.53;;;8.20;14.30;;;;;;5083647;28;20028;-81
2022/04/22 01:18:58;;;;;;;11.35;5.93;;;8.20;23.10;;;;;;5089053;28;20028;-81
2022/04/22 01:21:24;;;;;;;11.20;6.80;;;8.10;23.70;;;;;;5079420;28;20070;-81
2022/04/22 01:23:50;;;;;;;9.23;6.30;;;8.10;29.30;;;;;;5078326;28;20029;-78
2022/04/22 01:26:16;;;;;;;8.73;4.35;;;8.10;28.80;;;;;;5065821;28;20020;-79
2022/04/22 01:28:42;;;;;;;12.52;7.00;;;8.20;13.70;;;;;;5056739;28;20078;-79
2022/04/22 01:31:08;;;;;;;9.15;6.07;;;8.20;19.20;;;;;;5056466;28;20021;-78
2022/04/22 01:33:34;;;;;;;9.30;4.78;;;8.20;15.00;;;;;;5057737;28;20027;-79
2022/04/22 01:36:00;;;;;;;10.77;6.03;;;8.30;21.20;;;;;;5056416;28;20023;-79
2022/04/22 01:38:30;;;;;;;15.68;6.30;;;8.30;10.50;;;;;;5056582;28;20021;-78
2022/04/22 01:40:55;;;;;;;12.25;6.32;;;8.20;15.30;;;;;;5052295;28;20025;-79
2022/04/22 01:43:21;;;;;;;11.43;5.72;;;8.20;27.80;;;;;;5049095;28;20101;-78
2022/04/22 01:45:47;;;;;;;11.80;6.18;;;8.10;19.70;;;;;;5058901;28;20090;-78
2022/04/22 01:48:13;;;;;;;10.13;5.95;;;8.10;33.40;;;;;;5051848;28;20033;-79
2022/04/22 01:50:38;;;;;;;11.43;6.13;;;8.00;43.60;;;;;;5055401;28;20077;-79
2022/04/22 01:53:06;;;;;;;12.55;6.32;;;7.80;49.10;;;;;;5040121;28;20428;-79
2022/04/22 01:55:33;;;;;;;11.60;6.22;;;7.70;54.10;;;;;;5049899;28;20021;-79
2022/04/22 01:57:58;;;;;;;11.18;5.93;;;7.70;56.70;;;;;;5057921;28;20387;-79
2022/04/22 02:00:24;;;;;;;12.88;7.10;;;7.60;58.60;;;;;;5041336;28;20104;-79
2022/04/22 02:02:49;;;;;;;10.93;5.47;;;7.60;60.00;;;;;;5041905;28;20078;-79
2022/04/22 02:05:15;;;;;;;13.15;6.72;;;7.60;61.10;;;;;;5046657;28;20059;-79
2022/04/22 02:07:41;;;;;;;11.05;6.60;;;7.50;62.70;;;;;;5044785;28;20029;-79
2022/04/22 02:10:08;;;;;;;11.30;6.93;;;7.40;65.00;;;;;;5038020;28;20087;-79
2022/04/22 02:12:33;;;;;;;10.88;5.75;;;7.40;76.40;;;;;;5038625;28;20022;-80
2022/04/22 02:14:59;;;;;;;10.82;6.15;;;7.30;73.20;;;;;;5033992;28;20057;-79
2022/04/22 02:17:25;;;;;;;9.27;5.45;;;7.40;72.30;;;;;;5037261;28;20696;-78
2022/04/22 02:19:50;;;;;;;9.27;6.18;;;7.30;72.30;;;;;;5039112;28;20040;-79
2022/04/22 02:22:16;;;;;;;12.13;6.00;;;7.30;79.00;;;;;;5040954;28;20055;-79
2022/04/22 02:24:41;;;;;;;8.27;4.95;;;7.20;86.80;;;;;;5022498;28;20034;-79
2022/04/22 02:29:51;;;;;;;10.48;5.22;;;7.20;77.90;;;;;;5037546;28;20043;-79
2022/04/22 02:32:17;;;;;;;9.68;6.60;;;7.20;85.40;;;;;;5021196;28;20049;-79
2022/04/22 02:34:43;;;;;;;12.63;5.75;;;7.10;75.90;;;;;;5030229;28;20025;-80
2022/04/22 02:37:09;;;;;;;11.27;5.88;;;7.10;84.30;;;;;;5038164;28;20033;-80
2022/04/22 02:39:34;;;;;;;10.30;5.90;;;7.00;92.10;;;;;;5029191;28;20034;-80
2022/04/22 02:47:31;;;;;;;11.07;5.38;;;6.80;99.90;;;;;;5038376;28;20059;-79
2022/04/22 02:49:57;;;;;;;10.95;6.50;;;6.80;99.90;;;;;;5036025;28;20083;-80
2022/04/22 02:52:31;;;;;;;13.85;8.13;;;6.80;99.90;;;;;;5024838;28;20097;-80
2022/04/22 02:54:56;;;;;;;13.95;7.03;;;6.80;99.90;;;;;;5019937;28;20393;-80
2022/04/22 02:57:22;;;;;;;13.43;6.35;;;6.80;99.90;;;;;;5039446;28;20033;-79
2022/04/22 02:59:48;;;;;;;9.73;6.88;;;6.90;99.90;;;;;;5039435;28;20032;-80
2022/04/22 03:02:14;;;;;;;12.55;7.20;;;6.90;99.90;;;;;;5039669;28;20420;-79
2022/04/22 03:04:40;;;;;;;11.18;7.05;;;7.00;99.90;;;;;;5039293;28;20469;-80
2022/04/22 03:07:06;;;;;;;12.02;5.60;;;7.20;93.30;;;;;;5041282;28;20087;-79
2022/04/22 03:09:32;;;;;;;12.80;5.60;;;7.20;77.80;;;;;;5044815;28;20089;-80
2022/04/22 03:11:58;;;;;;;10.13;5.68;;;7.40;56.80;;;;;;5044181;28;20061;-80
2022/04/22 03:14:23;;;;;;;11.15;5.70;;;7.50;38.50;;;;;;5042965;28;20130;-79
2022/04/22 03:16:49;;;;;;;6.32;4.85;;;7.60;32.30;;;;;;5042317;28;20468;-80
2022/04/22 03:19:14;;;;;;;9.82;5.32;;;7.60;9.50;;;;;;5045993;28;20038;-79
2022/04/22 03:21:40;;;;;;;8.55;5.57;;;7.50;12.90;;;;;;5050846;28;20018;-79
2022/04/22 03:24:07;;;;;;;10.20;4.90;;;7.40;22.00;;;;;;5050047;28;20120;-79
2022/04/22 03:26:32;;;;;;;8.75;5.65;;;7.40;11.10;;;;;;5045990;28;20013;-79
2022/04/22 03:28:58;;;;;;;7.07;4.65;;;7.50;9.60;;;;;;5044581;28;20088;-80
2022/04/22 03:31:23;;;;;;;12.35;5.57;;;7.40;7.20;;;;;;5046257;28;20063;-80
2022/04/22 03:33:49;;;;;;;10.00;4.88;;;7.40;7.60;;;;;;5046456;28;20029;-80
2022/04/22 03:36:15;;;;;;;8.02;3.97;;;7.30;8.20;;;;;;5043739;28;20032;-79
2022/04/22 03:38:41;;;;;;;8.85;4.45;;;7.40;7.50;;;;;;5032031;28;20025;-79
2022/04/22 03:41:06;;;;;;;7.90;4.82;;;7.50;1.00;;;;;;5046157;28;20030;-80
2022/04/22 03:43:32;;;;;;;7.93;4.35;;;7.50;1.00;;;;;;5029943;28;20029;-79
2022/04/22 03:45:58;;;;;;;5.10;3.25;;;7.40;1.00;;;;;;5048256;28;20040;-80
2022/04/22 03:48:24;;;;;;;9.38;4.70;;;7.40;1.00;;;;;;5031028;28;20041;-79
2022/04/22 03:50:50;;;;;;;7.32;4.43;;;7.40;1.00;;;;;;5047954;28;20032;-80
2022/04/22 03:53:16;;;;;;;7.07;4.72;;;7.40;1.00;;;;;;5045989;28;20059;-79
2022/04/22 03:55:43;;;;;;;6.30;4.07;;;7.30;1.00;;;;;;5044358;28;20059;-79
2022/04/22 03:58:10;;;;;;;10.57;4.97;;;7.30;1.00;;;;;;5025129;28;20044;-80
2022/04/22 04:00:50;;;;;;;8.82;4.72;;;7.30;1.00;;;;;;5044374;28;20039;-79
2022/04/22 04:03:21;;;;;;;9.35;5.43;;;7.20;1.00;;;;;;5041139;28;20029;-80
2022/04/22 04:05:49;;;;;;;12.23;4.65;;;7.10;1.00;;;;;;5021880;28;20374;-79
2022/04/22 04:08:17;;;;;;;8.55;4.85;;;7.00;1.00;;;;;;5037422;28;20130;-79
2022/04/22 04:16:11;;;;;;;9.57;4.68;;;7.00;1.00;;;;;;5031340;28;20408;-78
2022/04/22 04:18:38;;;;;;;9.20;4.53;;;7.00;1.00;;;;;;5036617;28;20022;-78
2022/04/22 04:23:53;;;;;;;8.10;4.65;;;7.00;1.00;;;;;;5048301;28;20093;-78
2022/04/22 04:26:30;;;;;;;10.00;5.28;;;7.00;1.00;;;;;;5044957;28;20491;-80
2022/04/22 04:28:55;;;;;;;9.35;4.80;;;7.00;1.00;;;;;;5027558;28;20052;-79
2022/04/22 04:31:21;;;;;;;8.50;4.25;;;7.00;1.00;;;;;;5043923;28;20100;-80
2022/04/22 04:33:49;;;;;;;8.05;4.82;;;7.00;2.50;;;;;;5041719;28;20026;-80
2022/04/22 04:36:14;;;;;;;9.73;5.40;;;6.90;1.00;;;;;;5041076;28;20018;-79
2022/04/22 04:38:42;;;;;;;11.40;5.63;;;6.90;3.50;;;;;;5040081;28;20017;-79
2022/04/22 04:41:09;;;;;;;9.48;5.47;;;6.90;1.00;;;;;;5034999;28;20072;-79
2022/04/22 04:43:36;;;;;;;7.15;4.60;;;6.90;1.00;;;;;;5035344;28;20017;-80
2022/04/22 04:46:02;;;;;;;8.55;4.75;;;6.80;1.00;;;;;;5046084;28;20380;-80
2022/04/22 04:48:28;;;;;;;6.57;4.03;;;6.80;1.00;;;;;;5048054;28;20117;-80
2022/04/22 04:50:55;;;;;;;10.18;5.10;;;6.80;1.00;;;;;;5035096;28;20049;-80
2022/04/22 04:53:23;;;;;;;7.90;4.70;;;6.90;1.00;;;;;;5038416;28;20417;-80
2022/04/22 04:55:52;;;;;;;9.85;4.05;;;6.90;1.00;;;;;;5036039;28;20056;-80
2022/04/22 04:58:19;;;;;;;8.95;5.03;;;6.90;1.00;;;;;;5037021;28;20446;-80
2022/04/22 05:00:45;;;;;;;10.00;5.47;;;6.90;1.00;;;;;;5037750;28;20025;-80
2022/04/22 05:03:11;;;;;;;8.50;4.53;;;7.00;1.00;;;;;;5030628;28;20018;-80
2022/04/22 05:05:37;;;;;;;8.30;4.43;;;7.10;1.00;;;;;;5034387;28;20025;-80
2022/04/22 05:08:05;;;;;;;6.40;4.15;;;7.10;1.00;;;;;;5033450;28;20025;-81
2022/04/22 05:10:31;;;;;;;6.68;3.55;;;7.10;1.00;;;;;;5031872;28;20017;-80
2022/04/22 05:12:59;;;;;;;6.00;4.15;;;7.20;1.00;;;;;;5034660;28;20384;-80
2022/04/22 05:15:25;;;;;;;6.82;4.28;;;7.20;1.00;;;;;;5033707;28;20034;-80
2022/04/22 05:17:51;;;;;;;9.77;5.70;;;7.30;1.00;;;;;;5027676;28;20053;-80
2022/04/22 05:20:19;;;;;;;4.25;3.00;;;7.40;1.00;;;;;;5033462;28;20056;-80
2022/04/22 05:22:45;;;;;;;5.85;3.22;;;7.50;1.00;;;;;;5029880;28;20021;-80
2022/04/22 05:25:13;;;;;;;16.55;4.50;;;7.60;1.00;;;;;;5031428;28;21664;-80
2022/04/22 05:27:39;;;;;;;4.05;2.80;;;7.60;1.00;;;;;;5014848;28;20022;-80
2022/04/22 05:32:50;;;;;;;6.32;4.00;;;7.80;1.00;;;;;;5023056;28;20403;-80
2022/04/22 05:35:20;;;;;;;5.38;2.75;;;10.00;1.00;;;;;;5022974;28;20520;-80
2022/04/22 05:37:47;;;;;;;5.13;3.63;;;11.80;99.90;;;;;;5034783;28;20021;-80
2022/04/22 05:40:16;;;;;;;5.72;4.00;;;12.50;99.90;;;;;;5035312;28;20037;-80
2022/04/22 05:42:42;;;;;;;5.95;3.78;;;12.80;99.90;;;;;;5035245;28;20112;-81
2022/04/22 05:45:09;;;;;;;4.18;2.92;;;13.90;99.90;;;;;;5034825;28;20076;-81
2022/04/22 05:47:35;;;;;;;4.45;2.13;;;13.60;99.90;;;;;;5036131;28;20022;-80
2022/04/22 05:50:01;;;;;;;6.32;3.65;;;13.60;99.90;;;;;;5036394;28;20057;-80
2022/04/22 05:52:27;;;;;;;6.10;3.45;;;13.70;99.90;;;;;;5036252;28;20112;-79
2022/04/22 05:54:54;;;;;;;7.18;3.00;;;13.70;99.90;;;;;;5035671;28;20061;-80
2022/04/22 05:57:20;;;;;;;5.18;3.70;;;11.30;99.90;;;;;;5033150;28;20082;-80
2022/04/22 05:59:46;;;;;;;3.42;2.90;;;10.10;99.90;;;;;;5032805;28;20029;-81
2022/04/22 06:02:11;;;;;;;5.20;3.28;;;9.70;99.90;;;;;;5033123;28;20029;-78
2022/04/22 06:04:37;;;;;;;4.97;3.65;;;9.70;99.90;;;;;;5032759;28;20030;-80
2022/04/22 06:07:03;;;;;;;5.53;3.15;;;9.50;99.90;;;;;;5029690;28;20048;-80
2022/04/22 06:12:13;;;;;;;6.93;3.05;;;9.40;99.90;;;;;;5033572;28;20087;-79
2022/04/22 06:14:42;;;;;;;6.97;2.67;;;9.50;99.90;;;;;;5034005;28;20397;-80
2022/04/22 06:17:07;;;;;;;3.05;2.28;;;9.40;99.90;;;;;;5038760;28;20026;-80
2022/04/22 06:19:33;;;;;;;7.85;3.67;;;9.40;99.90;;;;;;5024887;28;20026;-81
2022/04/22 06:21:58;;;;;;;2.47;2.10;;;9.40;99.90;;;;;;5033664;28;20025;-80
2022/04/22 06:24:24;;;;;;;3.63;2.30;;;9.60;99.90;;;;;;5033444;28;20025;-80
2022/04/22 06:26:50;;;;;;;4.70;2.83;;;9.50;99.90;;;;;;5033562;28;20108;-80
2022/04/22 06:29:15;;;;;;;4.63;2.72;;;9.60;99.90;;;;;;5033602;28;20031;-81
2022/04/22 06:31:41;;;;;;;5.70;2.58;;;9.60;99.90;;;;;;5033326;28;20109;-81
2022/04/22 06:34:07;;;;;;;5.72;2.72;;;10.20;99.90;;;;;;5033225;28;20080;-80
2022/04/22 06:36:33;;;;;;;4.22;2.60;;;14.60;99.90;;;;;;5033525;28;20025;-81
2022/04/22 06:39:01;;;;;;;4.55;2.22;;;15.70;99.90;;;;;;5023022;28;20026;-80
2022/04/22 06:46:56;;;;;;;2.83;1.90;;;17.30;99.90;;;;;;5036796;28;20045;-81
2022/04/22 06:49:23;;;;;;;3.30;1.80;;;18.30;99.90;;;;;;5028563;28;20527;-79
2022/04/22 06:51:50;;;;;;;2.97;2.42;;;17.60;99.90;;;;;;5046955;28;20036;-78
2022/04/22 06:54:16;;;;;;;5.45;2.85;;;19.30;99.90;;;;;;5037349;28;20025;-78
2022/04/22 06:56:42;;;;;;;4.70;2.28;;;19.70;99.90;;;;;;5045780;28;20060;-80
2022/04/22 06:59:08;;;;;;;3.08;2.13;;;19.90;99.90;;;;;;5051166;28;20006;-82
2022/04/22 07:01:36;;;;;;;2.95;2.00;;;18.80;99.90;;;;;;5054812;28;20101;-79
2022/04/22 07:04:02;;;;;;;2.88;2.33;;;19.30;99.90;;;;;;5056522;28;20025;-79
2022/04/22 07:06:28;;;;;;;2.80;2.00;;;19.10;99.90;;;;;;5049535;28;20018;-79
2022/04/22 07:08:54;;;;;;;4.15;2.25;;;18.70;99.90;;;;;;5042424;28;20040;-81
2022/04/22 07:11:25;;;;;;;4.32;2.28;;;19.10;99.90;;;;;;5040882;28;20503;-82
2022/04/22 07:13:52;;;;;;;3.53;2.00;;;20.10;99.90;;;;;;5033048;28;20361;-82
2022/04/22 07:16:18;;;;;;;2.33;1.80;;;20.50;99.90;;;;;;5033491;28;20022;-82
2022/04/22 07:18:44;;;;;;;3.03;2.20;;;19.80;99.90;;;;;;5033862;28;20029;-81
2022/04/22 07:21:10;;;;;;;3.17;2.10;;;19.50;99.90;;;;;;5049179;28;20032;-80
2022/04/22 07:23:36;;;;;;;2.80;1.70;;;20.70;99.90;;;;;;5056148;28;20040;-80
2022/04/22 07:26:07;;;;;;;4.38;2.08;;;21.80;99.90;;;;;;5055246;28;20026;-81
2022/04/22 07:28:32;;;;;;;4.90;2.95;;;21.40;99.90;;;;;;5046898;28;20033;-82
2022/04/22 07:31:01;;;;;;;2.97;2.00;;;20.70;99.90;;;;;;5051884;28;20028;-82
2022/04/22 07:33:27;;;;;;;2.83;1.90;;;21.10;99.90;;;;;;5055751;28;20025;-81
2022/04/22 07:35:53;;;;;;;3.08;1.50;;;21.60;99.90;;;;;;5046924;28;20088;-82
2022/04/22 07:38:19;;;;;;;2.30;1.50;;;20.80;99.90;;;;;;5055798;28;20277;-82
2022/04/22 07:40:48;;;;;;;4.88;2.05;;;20.40;99.90;;;;;;5056675;28;20025;-81
2022/04/22 07:48:44;;;;;;;3.55;2.25;;;23.30;99.90;;;;;;5056402;28;20052;-82
2022/04/22 07:51:09;;;;;;;3.05;1.85;;;23.40;99.90;;;;;;5055719;28;20036;-81
2022/04/22 07:53:35;;;;;;;3.83;1.73;;;22.30;99.90;;;;;;5063102;28;20017;-82
2022/04/22 07:56:03;;;;;;;3.42;2.10;;;22.60;99.90;;;;;;5057493;28;20081;-82
2022/04/22 07:58:31;;;;;;;1.98;1.60;;;23.10;99.90;;;;;;5056654;28;20048;-81
2022/04/22 08:00:57;;;;;;;2.17;1.92;;;24.10;99.90;;;;;;5056452;28;20097;-81
2022/04/22 08:03:22;;;;;;;2.55;1.83;;;22.80;99.90;;;;;;5057014;28;20037;-81
2022/04/22 08:05:48;;;;;;;3.42;2.40;;;23.10;99.90;;;;;;5056074;28;20022;-82
2022/04/22 08:08:14;;;;;;;3.30;1.83;;;23.10;99.90;;;;;;5057791;28;20040;-82
2022/04/22 08:10:39;;;;;;;4.70;2.13;;;23.10;99.90;;;;;;5057788;28;20017;-82
2022/04/22 08:13:06;;;;;;;3.30;1.85;;;22.70;99.90;;;;;;5057093;28;20044;-82
2022/04/22 08:15:33;;;;;;;4.00;2.15;;;23.00;99.90;;;;;;5057018;28;20025;-82
2022/04/22 08:17:59;;;;;;;4.15;1.65;;;23.80;99.90;;;;;;5055901;28;20038;-81
2022/04/22 08:20:24;;;;;;;2.15;1.60;;;23.60;99.90;;;;;;5050266;28;20021;-82
2022/04/22 08:22:50;;;;;;;2.67;1.80;;;23.90;99.90;;;;;;5055668;28;20049;-82
2022/04/22 08:25:16;;;;;;;2.85;1.30;;;22.20;99.90;;;;;;5054079;28;20036;-81
2022/04/22 08:27:41;;;;;;;3.05;1.70;;;22.10;99.90;;;;;;5051060;28;20026;-81
2022/04/22 08:30:08;;;;;;;4.03;1.42;;;22.70;99.90;;;;;;5041106;28;20054;-82
2022/04/22 08:32:34;;;;;;;2.60;1.63;;;22.90;99.90;;;;;;5048327;28;20025;-81
2022/04/22 08:35:00;;;;;;;1.83;1.73;;;23.80;99.90;;;;;;5054168;28;20041;-81
2022/04/22 08:37:25;;;;;;;2.95;1.52;;;23.30;99.90;;;;;;5052428;28;20017;-81
2022/04/22 08:39:51;;;;;;;3.20;1.45;;;23.30;99.90;;;;;;5052549;28;20112;-82
2022/04/22 08:42:23;;;;;;;3.20;1.38;;;22.80;99.90;;;;;;5052958;28;20044;-81
2022/04/22 08:44:49;;;;;;;4.93;2.17;;;23.10;99.90;;;;;;5054426;28;20046;-81
2022/04/22 08:49:59;;;;;;;2.80;1.60;;;22.30;99.90;;;;;;5055555;28;20036;-80
2022/04/22 08:52:26;;;;;;;2.20;1.50;;;23.30;99.90;;;;;;5058318;28;20068;-81
2022/04/22 08:54:56;;;;;;;2.13;1.73;;;22.10;99.90;;;;;;5057197;28;20029;-81
2022/04/22 08:57:22;;;;;;;3.05;2.08;;;21.50;99.90;;;;;;5049399;28;20010;-80
2022/04/22 08:59:49;;;;;;;3.72;1.92;;;21.80;99.90;;;;;;5057024;28;20030;-81
2022/04/22 09:02:20;;;;;;;3.15;1.80;;;22.70;99.90;;;;;;5057092;28;20025;-80
2022/04/22 09:04:46;;;;;;;3.50;1.92;;;21.20;99.90;;;;;;5057016;28;20022;-80
2022/04/22 09:07:13;;;;;;;2.40;1.45;;;22.50;99.90;;;;;;5057218;28;20139;-80
2022/04/22 09:09:42;;;;;;;2.63;2.00;;;23.20;99.90;;;;;;5057143;28;20033;-80
2022/04/22 09:12:13;;;;;;;2.45;2.03;;;24.20;99.90;;;;;;5056154;28;20033;-81
2022/04/22 09:14:49;;;;;;;2.67;1.83;;;24.30;99.90;;;;;;5055332;28;20038;-80
2022/04/22 09:17:22;;;;;;;1.98;1.55;;;23.30;99.90;;;;;;5056766;28;20009;-80
2022/04/22 09:19:48;;;;;;;4.28;1.85;;;22.50;99.90;;;;;;5054057;28;20113;-81
2022/04/22 09:22:24;;;;;;;2.00;1.25;;;22.80;99.90;;;;;;5055544;28;20022;-81
2022/04/22 09:24:55;;;;;;;5.88;2.55;;;21.70;99.90;;;;;;5054389;28;20037;-80
2022/04/22 09:27:35;;;;;;;4.78;2.15;;;22.70;99.90;;;;;;5054327;28;20057;-81
2022/04/22 09:30:09;;;;;;;3.33;1.50;;;24.00;99.90;;;;;;5055466;28;20057;-80
2022/04/22 09:32:39;;;;;;;2.60;1.42;;;23.50;99.90;;;;;;5055510;28;20029;-81
2022/04/22 09:35:20;;;;;;;2.28;2.08;;;24.10;99.90;;;;;;5051756;28;20037;-80
2022/04/22 09:43:36;;;;;;;2.67;1.75;;;21.60;99.90;;;;;;5050174;28;20041;-81
2022/04/22 09:46:03;;;;;;;1.85;1.67;;;22.20;99.90;;;;;;5043006;28;20040;-80
2022/04/22 09:48:40;;;;;;;2.38;1.30;;;22.20;99.90;;;;;;5052404;28;20034;-80
2022/04/22 09:51:27;;;;;;;3.03;1.77;;;22.70;99.90;;;;;;5052582;28;20016;-81
2022/04/22 09:54:03;;;;;;;1.67;1.13;;;22.90;99.90;;;;;;5053687;28;20017;-81
2022/04/22 09:56:29;;;;;;;2.72;1.70;;;24.00;99.90;;;;;;5048242;28;20086;-81
2022/04/22 09:58:56;;;;;;;3.05;1.90;;;21.60;99.90;;;;;;5053779;28;20014;-80
2022/04/22 10:01:24;;;;;;;3.85;1.67;;;22.90;99.90;;;;;;5054777;28;20010;-80
2022/04/22 10:03:50;;;;;;;3.78;1.92;;;22.50;99.90;;;;;;5054302;28;20041;-80
2022/04/22 10:06:15;;;;;;;3.92;2.15;;;24.00;99.90;;;;;;5053595;28;20033;-81
2022/04/22 10:08:45;;;;;;;3.45;1.80;;;24.10;99.90;;;;;;5051615;28;20021;-81
2022/04/22 10:11:13;;;;;;;;;;;23.60;99.90;;;;;;5054300;28;20026;-81
2022/04/22 10:13:45;;;;;;;3.08;2.10;;;22.40;99.90;;;;;;5034633;28;19921;-81
2022/04/22 10:16:12;;;;;;;3.85;1.70;;;24.30;99.90;;;;;;5045708;28;20053;-81
2022/04/22 10:18:39;;;;;;;6.18;1.95;;;24.00;99.90;;;;;;5042492;28;20547;-80
2022/04/22 10:21:04;;;;;;;2.53;1.63;;;22.00;99.90;;;;;;5044870;28;20049;-80
2022/04/22 10:23:30;;;;;;;6.13;2.13;;;23.50;99.90;;;;;;5041409;28;20068;-81
2022/04/22 10:25:57;;;;;;;2.63;1.98;;;23.20;99.90;;;;;;5038654;28;20075;-81
2022/04/22 10:28:24;;;;;;;6.65;2.30;;;22.80;99.90;;;;;;5034864;28;20117;-80
2022/04/22 10:30:52;;;;;;;2.42;1.98;;;23.50;99.90;;;;;;5019218;28;20022;-81
2022/04/22 10:33:23;;;;;;;2.08;1.70;;;23.70;99.90;;;;;;5032990;28;20028;-80
2022/04/22 10:35:56;;;;;;;3.70;2.03;;;23.00;99.90;;;;;;5024744;28;20038;-80
2022/04/22 10:38:33;;;;;;;3.08;2.10;;;23.70;99.90;;;;;;5033080;28;20036;-80
2022/04/22 10:41:05;;;;;;;3.13;1.80;;;22.10;99.90;;;;;;5033435;28;20565;-80
2022/04/22 10:43:31;;;;;;;5.32;2.72;;;22.40;99.90;;;;;;5033319;28;20100;-81
2022/04/22 10:48:42;;;;;;;3.92;2.15;;;22.80;99.90;;;;;;5033687;28;20046;-78
2022/04/22 10:51:11;;;;;;;3.45;1.83;;;22.40;99.90;;;;;;5030687;28;20391;-78
2022/04/22 10:53:47;;;;;;;4.82;2.90;;;21.20;99.90;;;;;;5035202;28;20395;-78
2022/04/22 10:56:32;;;;;;;2.80;2.38;;;21.50;99.90;;;;;;5023407;28;20401;-78
2022/04/22 10:59:16;;;;;;;4.55;3.28;;;20.20;99.90;;;;;;5030272;28;20072;-78
2022/04/22 11:01:43;;;;;;;6.10;2.67;;;21.20;99.90;;;;;;5029993;28;20493;-78
2022/04/22 11:04:33;;;;;;;4.82;2.55;;;20.20;99.90;;;;;;5030039;28;20036;-78
2022/04/22 11:06:59;;;;;;;4.40;2.05;;;19.10;99.90;;;;;;5014211;28;20033;-78
2022/04/22 11:09:26;;;;;;;6.25;2.75;;;17.80;99.90;;;;;;5030181;28;20041;-78
2022/04/22 11:11:52;;;;;;;5.40;2.63;;;17.50;99.90;;;;;;5029007;28;20108;-79
2022/04/22 11:14:23;;;;;;;4.63;2.38;;;17.00;99.90;;;;;;5040280;28;20091;-78
2022/04/22 11:16:49;;;;;;;3.85;2.55;;;16.40;99.90;;;;;;5037530;28;20041;-78
2022/04/22 11:19:18;;;;;;;4.18;2.53;;;16.10;99.90;;;;;;5011434;28;20052;-78
2022/04/22 11:21:55;;;;;;;7.55;2.97;;;15.80;99.90;;;;;;5025101;28;20044;-80
2022/04/22 11:24:24;;;;;;;3.88;2.85;;;15.80;99.90;;;;;;5029762;28;20121;-77
2022/04/22 11:26:52;;;;;;;6.57;3.42;;;15.90;99.90;;;;;;5030065;28;20057;-78
2022/04/22 11:29:17;;;;;;;4.45;3.03;;;15.60;99.90;;;;;;5032660;28;20030;-78
2022/04/22 11:32:12;;;;;;;6.97;3.28;;;15.60;99.90;;;;;;5033243;28;20045;-77
2022/04/22 11:34:46;;;;;;;5.00;2.95;;;15.40;99.90;;;;;;5024182;28;20381;-76
2022/04/22 11:37:20;;;;;;;3.92;2.88;;;15.50;99.90;;;;;;5037792;28;20053;-76
2022/04/22 11:39:48;;;;;;;6.38;2.75;;;15.40;99.90;;;;;;5036895;28;20029;-77
2022/04/22 11:42:15;;;;;;;4.15;2.33;;;15.40;99.90;;;;;;5036949;28;20057;-77
2022/04/22 11:44:41;;;;;;;3.58;2.55;;;15.30;99.90;;;;;;5035379;28;20024;-77
2022/04/22 11:47:07;;;;;;;7.07;2.78;;;15.30;99.90;;;;;;5037017;28;20033;-77
2022/04/22 11:49:32;;;;;;;9.93;3.60;;;15.60;99.90;;;;;;5038884;28;20069;-77
2022/04/22 11:52:00;;;;;;;5.10;3.33;;;15.20;99.90;;;;;;5040321;28;20041;-77
2022/04/22 11:54:26;;;;;;;5.05;2.97;;;15.80;99.90;;;;;;5049229;28;20411;-78
2022/04/22 11:56:54;;;;;;;5.35;3.80;;;15.50;99.90;;;;;;5045359;28;20433;-78
2022/04/22 11:59:21;;;;;;;5.22;3.63;;;15.50;99.90;;;;;;5048139;28;20048;-78
2022/04/22 12:10:02;;;;;;;5.38;3.58;;;15.80;99.90;;;;;;5037327;28;20375;-78
2022/04/22 12:12:31;;;;;;;5.72;3.53;;;15.70;99.90;;;;;;5046585;28;20041;-78
2022/04/22 12:15:04;;;;;;;2.67;2.40;;;15.80;99.90;;;;;;5041197;28;20128;-78
2022/04/22 12:17:30;;;;;;;5.63;3.50;;;15.70;99.90;;;;;;5045460;28;20037;-78
2022/04/22 12:19:56;;;;;;;6.05;4.18;;;15.80;99.90;;;;;;5034308;28;20093;-79
2022/04/22 12:22:23;;;;;;;6.88;3.95;;;16.00;99.90;;;;;;5040110;28;20460;-78
2022/04/22 12:25:12;;;;;;;6.40;4.30;;;16.00;99.90;;;;;;5040218;28;20029;-79
2022/04/22 12:27:39;;;;;;;6.82;3.60;;;15.90;99.90;;;;;;5035445;28;20026;-80
2022/04/22 12:30:37;;;;;;;11.52;4.88;;;16.10;99.90;;;;;;5018885;28;20073;-80
2022/04/22 12:33:03;;;;;;;6.60;4.05;;;16.10;99.90;;;;;;5026019;28;20029;-80
2022/04/22 12:35:28;;;;;;;5.95;3.85;;;16.20;99.90;;;;;;5041321;28;20106;-79
2022/04/22 12:37:56;;;;;;;5.82;4.28;;;16.10;99.90;;;;;;5039786;28;20056;-80
2022/04/22 12:40:22;;;;;;;5.25;3.33;;;16.10;99.90;;;;;;5041569;28;20018;-80
2022/04/22 12:42:48;;;;;;;6.10;4.03;;;16.20;99.90;;;;;;5042283;28;20017;-79
2022/04/22 12:53:50;;;;;;;7.43;3.85;;;16.10;99.90;;;;;;5025566;28;20036;-80
2022/04/22 12:56:16;;;;;;;8.98;4.35;;;16.10;99.90;;;;;;5038556;28;20493;-80
2022/04/22 12:58:53;;;;;;;4.72;3.70;;;15.90;99.90;;;;;;5030392;28;20033;-79
2022/04/22 13:01:40;;;;;;;9.95;4.43;;;15.90;99.90;;;;;;5027011;28;20025;-79
2022/04/22 13:04:07;;;;;;;10.55;4.63;;;16.20;99.90;;;;;;5027870;28;20385;-79
2022/04/22 13:06:44;;;;;;;7.10;4.55;;;16.20;99.90;;;;;;5041360;28;20125;-79
2022/04/22 13:09:11;;;;;;;7.43;4.32;;;16.30;99.90;;;;;;5037823;28;20040;-79
2022/04/22 13:11:37;;;;;;;5.80;3.97;;;16.50;99.90;;;;;;5039508;28;20028;-79
2022/04/22 13:14:04;;;;;;;9.18;4.10;;;16.50;99.90;;;;;;5039038;28;20053;-79
2022/04/22 13:16:30;;;;;;;8.88;5.28;;;16.20;99.90;;;;;;5037655;28;20123;-79
2022/04/22 13:18:56;;;;;;;6.35;3.78;;;16.20;99.90;;;;;;5041874;28;20033;-79
2022/04/22 13:21:22;;;;;;;8.73;4.10;;;16.40;99.90;;;;;;5041149;28;20093;-79
2022/04/22 13:27:29;;;;;;;7.32;5.10;;;16.30;99.90;;;;;;5047340;28;20036;-79
2022/04/22 13:29:54;;;;;;;7.25;3.70;;;16.30;99.90;;;;;;5033104;28;20037;-80
2022/04/22 13:32:20;;;;;;;5.72;4.38;;;16.30;99.90;;;;;;5031974;28;20496;-79
2022/04/22 13:34:46;;;;;;;8.32;4.28;;;16.30;99.90;;;;;;5022274;28;20365;-79
2022/04/22 13:37:11;;;;;;;9.27;5.72;;;16.30;99.90;;;;;;5012270;28;20042;-79
2022/04/22 13:39:38;;;;;;;8.00;4.25;;;16.40;99.90;;;;;;5033190;28;20040;-78
2022/04/22 13:42:04;;;;;;;6.63;4.40;;;16.30;99.90;;;;;;5034223;28;20120;-79
2022/04/22 13:52:47;;;;;;;7.13;4.70;;;16.50;99.90;;;;;;5021999;28;20119;-80
2022/04/22 13:55:12;;;;;;;8.15;5.15;;;16.40;99.90;;;;;;5035137;28;20488;-80
2022/04/22 13:57:38;;;;;;;8.77;5.15;;;16.50;99.90;;;;;;5039756;28;20052;-80
2022/04/22 14:00:05;;;;;;;8.15;4.93;;;16.60;99.90;;;;;;5027901;28;20029;-80
2022/04/22 14:02:31;;;;;;;7.93;4.45;;;16.50;99.90;;;;;;5034430;28;20017;-80
2022/04/22 14:04:56;;;;;;;6.95;4.90;;;16.80;99.90;;;;;;5042411;28;20480;-80
2022/04/22 14:07:22;;;;;;;11.52;6.15;;;16.90;99.90;;;;;;5044826;28;20032;-80
2022/04/22 14:09:49;;;;;;;8.50;4.97;;;16.90;99.90;;;;;;5025333;28;20045;-80
2022/04/22 14:12:15;;;;;;;9.38;5.05;;;16.80;99.90;;;;;;5039962;28;20021;-80